ADDS METAR Data INFO
IDs: Format: Raw Decoded Include TAF

Data at: 0913 UTC 25 Feb 2018

KBMQ 250853Z AUTO 01004KT 10SM FEW055 13/10 A3000 RMK AO2 SLP148 T01280100 58001
KBMQ 250753Z AUTO 02005KT 10SM SCT110 13/10 A3002 RMK AO2 SLP155 T01330100
KBMQ 250653Z AUTO 04004KT 10SM CLR 14/10 A3001 RMK AO2 SLP151 T01390100
KBMQ 250553Z AUTO 05004KT 10SM CLR 14/11 A3001 RMK AO2 SLP151 T01440106 10228 20144 402500144 50006
KBMQ 250453Z AUTO 07003KT 10SM SCT046 16/11 A3001 RMK AO2 SLP152 T01560111
KBMQ 250353Z AUTO 05007KT 10SM BKN042 OVC049 17/12 A3001 RMK AO2 SLP151 T01670122
KBMQ 250253Z AUTO 04005KT 10SM OVC040 17/12 A2999 RMK AO2 SLP143 T01720122 51037
KBMQ 250153Z AUTO 04009KT 10SM CLR 18/11 A2996 RMK AO2 SLP132 T01830111
KBMQ 250102Z AUTO 03010G16KT 10SM SCT029 BKN035 OVC090 21/14 A2993 RMK AO2 T02060139
KBMQ 250053Z AUTO 02005KT 10SM BKN029 BKN045 OVC090 21/15 A2993 RMK AO2 PRESRR SLP120 T02110150
KBMQ 242353Z AUTO 17006KT 10SM CLR 23/18 A2988 RMK AO2 SLP102 T02280178 10250 20211 53010
KBMQ 242253Z AUTO 18007KT 10SM SCT047 BKN060 24/18 A2986 RMK AO2 LTG DSNT NE SLP098 T02390183
KBMQ 242153Z AUTO 18008KT 10SM FEW035 SCT045 BKN050 24/18 A2985 RMK AO2 SLP094 T02440183
KBMQ 242053Z AUTO 17008G14KT 10SM FEW025 SCT034 23/18 A2984 RMK AO2 SLP091 T02330183 58026
KBMQ 241953Z AUTO 20009KT 10SM FEW021 SCT030 SCT042 23/19 A2987 RMK AO2 SLP101 T02330189
KBMQ 241909Z AUTO 20011KT 10SM FEW019 SCT027 BKN033 23/19 A2989 RMK AO2 T02280189
KBMQ 241853Z AUTO 20011KT 10SM SCT021 BKN027 BKN033 23/19 A2990 RMK AO2 SLP112 T02280189
KBMQ 241817Z AUTO 19007KT 10SM SCT014 BKN021 OVC030 22/19 A2991 RMK AO2 T02170189
KBMQ 241753Z AUTO 19007KT 10SM BKN014 OVC019 21/19 A2992 RMK AO2 SLP120 60000 T02110189 10211 20189 51010
KBMQ 241740Z AUTO 19007KT 10SM BKN014 OVC021 21/19 A2993 RMK AO2 T02110189
KBMQ 241710Z AUTO 18007G16KT 9SM BKN015 OVC025 21/19 A2992 RMK AO2 T02110189
KBMQ 241653Z AUTO 19011KT 8SM OVC014 21/19 A2992 RMK AO2 SLP118 T02060189
KBMQ 241553Z AUTO 19010KT 8SM OVC014 20/18 A2990 RMK AO2 SLP115 T02000183
KBMQ 241453Z AUTO 18011G20KT 7SM OVC014 20/18 A2989 RMK AO2 RAB29E46 SLP110 P0000 60000 T02000183 55003
KBMQ 241353Z AUTO 17012G19KT 6SM BR OVC012 19/18 A2988 RMK AO2 SLP106 T01940183
KBMQ 241253Z AUTO 18011G17KT 8SM OVC013 19/18 A2987 RMK AO2 LTG DSNT E RAB14E26 SLP104 P0000 T01940183
KBMQ 241153Z AUTO 20009KT 7SM OVC010 19/18 A2990 RMK AO2 LTG DSNT SW AND W PRESRR SLP114 60001 70001 T01890183 10194 20178 55009
KBMQ 241053Z AUTO 16008KT 6SM BR FEW005 OVC014 19/18 A2986 RMK AO2 RAE43 SLP101 P0001 T01890183
KBMQ 241044Z AUTO 16007G15KT 7SM SCT005 OVC016 19/18 A2987 RMK AO2 RAE43 P0001 T01890183
KBMQ 240953Z AUTO 16006KT 6SM -RA BR OVC006 19/18 A2991 RMK AO2 LTG DSNT NW RAB52 SLP118 P0000 T01890183
KBMQ 240912Z AUTO 15006KT 6SM BR OVC005 18/18 A2991 RMK AO2 T01830183
KBMQ 240853Z AUTO 16006KT 5SM BR OVC003 18/18 A2993 RMK AO2 CIG 003V008 SLP124 T01830183 58020
KBMQ 240808Z AUTO 16007KT 3SM BR OVC002 18/18 A2997 RMK AO2 T01780178
KBMQ 240753Z AUTO 16007KT 120V180 2SM BR OVC002 18/18 A2998 RMK AO2 SLP141 T01780178
KBMQ 240735Z AUTO 16008KT 1 1/2SM BR OVC002 18/18 A2999 RMK AO2 T01780178
KBMQ 240724Z AUTO 16007KT 1 1/4SM BR OVC002 18/18 A2999 RMK AO2 T01780178
KBMQ 240712Z AUTO 17006KT 2 1/2SM BR OVC003 18/18 A2999 RMK AO2 T01780178
KBMQ 240653Z AUTO 16008KT 3SM BR OVC003 18/17 A2998 RMK AO2 SLP145 T01780172
KBMQ 240639Z AUTO 15007KT 4SM BR OVC004 18/17 A2998 RMK AO2 T01780172
KBMQ 240600Z AUTO 15006KT 7SM OVC006 18/17 A2999 RMK AO2 T01780172
KBMQ 240553Z AUTO VRB05KT 8SM OVC007 18/17 A2999 RMK AO2 SLP148 T01780172 10178 20161 401780044 58013
KBMQ 240515Z AUTO 00000KT 8SM OVC009 17/17 A3001 RMK AO2 CIG 007V011 T01720167
KBMQ 240453Z AUTO 15003KT 6SM BR BKN010 OVC026 17/17 A3002 RMK AO2 SLP159 T01720167
KBMQ 240425Z AUTO 00000KT 3SM BR FEW013 OVC025 17/17 A3003 RMK AO2 T01670167
KBMQ 240421Z AUTO 00000KT 1 1/2SM BR OVC025 17/17 A3003 RMK AO2 T01670167
KBMQ 240353Z AUTO 00000KT 1/2SM FG FEW003 OVC026 17/17 A3003 RMK AO2 SLP161 T01670167
KBMQ 240349Z AUTO 00000KT 1/2SM FG SCT003 OVC026 17/17 A3003 RMK AO2
KBMQ 240336Z AUTO 00000KT 1/2SM FG BKN002 OVC024 17/17 A3003 RMK AO2 T01670167
KBMQ 240315Z AUTO 14004KT 1SM BR OVC002 17/16 A3003 RMK AO2 T01670161
KBMQ 240253Z AUTO 00000KT 3/4SM BR OVC002 17/17 A3004 RMK AO2 SLP166 T01670167 51005
KBMQ 240249Z AUTO 00000KT 1SM BR OVC002 17/17 A3004 RMK AO2
KBMQ 240236Z AUTO 00000KT 3/4SM BR OVC002 16/16 A3003 RMK AO2 T01610161
KBMQ 240226Z AUTO 00000KT 1 1/2SM BR OVC002 17/17 A3004 RMK AO2 T01670167
KBMQ 240153Z AUTO 00000KT 1/2SM FG VV002 17/17 A3004 RMK AO2 SLP165 T01670167
KBMQ 240145Z AUTO 00000KT 3/4SM BR VV002 17/17 A3004 RMK AO2 T01670167
KBMQ 240112Z AUTO 17003KT 1 1/4SM BR OVC002 17/16 A3003 RMK AO2 T01670161
KBMQ 240053Z AUTO 14003KT 1 3/4SM BR OVC002 17/16 A3002 RMK AO2 SLP161 T01670161
KBMQ 240015Z AUTO 18004KT 2 1/2SM BR OVC002 17/17 A3002 RMK AO2 T01670167
KBMQ 232353Z AUTO 16005KT 3SM BR OVC002 17/17 A3002 RMK AO2 SLP161 T01670167 10167 20106 56010
KBMQ 232335Z AUTO 15004KT 3SM BR OVC002 17/16 A3002 RMK AO2 T01670161
KBMQ 232308Z AUTO 15006KT 2 1/2SM BR OVC002 16/16 A3003 RMK AO2 T01610161
KBMQ 232253Z AUTO 16005G14KT 3SM BR OVC002 16/16 A3003 RMK AO2 SLP165 T01610161
KBMQ 232242Z AUTO VRB05KT 3SM BR OVC002 16/16 A3003 RMK AO2 T01610161
KBMQ 232222Z AUTO 16006KT 2 1/2SM BR OVC002 16/16 A3003 RMK AO2 T01610156
KBMQ 232209Z AUTO 16005KT 1 1/2SM BR OVC002 16/16 A3004 RMK AO2 T01560156
KBMQ 232153Z AUTO 15006KT 1 1/4SM BR OVC002 16/16 A3004 RMK AO2 SLP166 T01560156
KBMQ 232151Z AUTO 15007KT 1 1/4SM BR OVC002 16/16 A3004 RMK AO2
KBMQ 232146Z AUTO 16007G16KT 2SM BR OVC002 16/16 A3004 RMK AO2 T01560156